sensor_id;sensor_type;location;lat;lon;timestamp;P1;durP1;ratioP1;P2;durP2;ratioP2
51636;SDS011;37713;53.254;6.460;2023-02-28T00:00:17;10.52;;;2.17;;
51636;SDS011;37713;53.254;6.460;2023-02-28T00:02:44;8.48;;;2.20;;
51636;SDS011;37713;53.254;6.460;2023-02-28T00:05:11;11.25;;;4.13;;
51636;SDS011;37713;53.254;6.460;2023-02-28T00:07:42;11.05;;;4.63;;
51636;SDS011;37713;53.254;6.460;2023-02-28T00:10:08;13.60;;;4.05;;
51636;SDS011;37713;53.254;6.460;2023-02-28T00:12:36;16.02;;;4.80;;
51636;SDS011;37713;53.254;6.460;2023-02-28T00:15:07;10.57;;;3.08;;
51636;SDS011;37713;53.254;6.460;2023-02-28T00:17:35;12.27;;;3.83;;
51636;SDS011;37713;53.254;6.460;2023-02-28T00:20:01;10.45;;;3.35;;
51636;SDS011;37713;53.254;6.460;2023-02-28T00:22:29;11.43;;;3.53;;
51636;SDS011;37713;53.254;6.460;2023-02-28T00:24:55;13.70;;;3.45;;
51636;SDS011;37713;53.254;6.460;2023-02-28T00:27:21;14.88;;;4.03;;
51636;SDS011;37713;53.254;6.460;2023-02-28T00:29:47;7.30;;;2.50;;
51636;SDS011;37713;53.254;6.460;2023-02-28T00:32:13;10.02;;;2.50;;
51636;SDS011;37713;53.254;6.460;2023-02-28T00:34:38;9.60;;;2.30;;
51636;SDS011;37713;53.254;6.460;2023-02-28T00:37:05;6.55;;;1.98;;
51636;SDS011;37713;53.254;6.460;2023-02-28T00:39:33;10.93;;;2.88;;
51636;SDS011;37713;53.254;6.460;2023-02-28T00:42:00;17.25;;;4.53;;
51636;SDS011;37713;53.254;6.460;2023-02-28T00:44:27;12.50;;;4.82;;
51636;SDS011;37713;53.254;6.460;2023-02-28T00:46:53;13.45;;;5.18;;
51636;SDS011;37713;53.254;6.460;2023-02-28T00:49:20;16.35;;;4.25;;
51636;SDS011;37713;53.254;6.460;2023-02-28T00:51:46;11.98;;;3.42;;
51636;SDS011;37713;53.254;6.460;2023-02-28T00:54:12;20.27;;;6.30;;
51636;SDS011;37713;53.254;6.460;2023-02-28T00:56:37;58.20;;;17.13;;
51636;SDS011;37713;53.254;6.460;2023-02-28T00:59:04;29.13;;;11.43;;
51636;SDS011;37713;53.254;6.460;2023-02-28T01:01:30;25.33;;;8.10;;
51636;SDS011;37713;53.254;6.460;2023-02-28T01:03:56;15.70;;;5.32;;
51636;SDS011;37713;53.254;6.460;2023-02-28T01:06:21;9.13;;;2.80;;
51636;SDS011;37713;53.254;6.460;2023-02-28T01:08:47;9.77;;;2.45;;
51636;SDS011;37713;53.254;6.460;2023-02-28T01:11:14;11.32;;;2.40;;
51636;SDS011;37713;53.254;6.460;2023-02-28T01:13:42;7.82;;;1.90;;
51636;SDS011;37713;53.254;6.460;2023-02-28T01:16:09;5.50;;;1.80;;
51636;SDS011;37713;53.254;6.460;2023-02-28T01:18:35;8.43;;;1.80;;
51636;SDS011;37713;53.254;6.460;2023-02-28T01:21:06;6.70;;;1.63;;
51636;SDS011;37713;53.254;6.460;2023-02-28T01:23:33;7.45;;;2.22;;
51636;SDS011;37713;53.254;6.460;2023-02-28T01:26:06;6.78;;;1.90;;
51636;SDS011;37713;53.254;6.460;2023-02-28T01:28:42;6.30;;;1.85;;
51636;SDS011;37713;53.254;6.460;2023-02-28T01:31:08;7.45;;;1.80;;
51636;SDS011;37713;53.254;6.460;2023-02-28T01:33:35;5.15;;;1.60;;
51636;SDS011;37713;53.254;6.460;2023-02-28T01:36:02;5.40;;;1.90;;
51636;SDS011;37713;53.254;6.460;2023-02-28T01:38:28;5.85;;;1.80;;
51636;SDS011;37713;53.254;6.460;2023-02-28T01:40:54;6.22;;;1.60;;
51636;SDS011;37713;53.254;6.460;2023-02-28T01:43:25;6.60;;;1.55;;
51636;SDS011;37713;53.254;6.460;2023-02-28T01:45:56;6.57;;;2.22;;
51636;SDS011;37713;53.254;6.460;2023-02-28T01:48:25;10.13;;;2.50;;
51636;SDS011;37713;53.254;6.460;2023-02-28T01:50:56;10.88;;;2.65;;
51636;SDS011;37713;53.254;6.460;2023-02-28T01:53:28;8.40;;;2.78;;
51636;SDS011;37713;53.254;6.460;2023-02-28T01:55:57;8.35;;;2.30;;
51636;SDS011;37713;53.254;6.460;2023-02-28T01:58:23;7.90;;;2.53;;
51636;SDS011;37713;53.254;6.460;2023-02-28T02:00:49;11.75;;;2.78;;
51636;SDS011;37713;53.254;6.460;2023-02-28T02:03:16;6.07;;;2.50;;
51636;SDS011;37713;53.254;6.460;2023-02-28T02:05:44;6.35;;;2.35;;
51636;SDS011;37713;53.254;6.460;2023-02-28T02:08:23;6.85;;;2.38;;
51636;SDS011;37713;53.254;6.460;2023-02-28T02:10:52;9.23;;;2.60;;
51636;SDS011;37713;53.254;6.460;2023-02-28T02:13:47;8.15;;;2.30;;
51636;SDS011;37713;53.254;6.460;2023-02-28T02:18:53;7.65;;;1.90;;
51636;SDS011;37713;53.254;6.460;2023-02-28T02:27:08;5.40;;;1.58;;
51636;SDS011;37713;53.254;6.460;2023-02-28T02:35:54;5.78;;;1.23;;
51636;SDS011;37713;53.254;6.460;2023-02-28T02:44:02;5.63;;;1.60;;
51636;SDS011;37713;53.254;6.460;2023-02-28T02:46:39;7.72;;;1.70;;
51636;SDS011;37713;53.254;6.460;2023-02-28T02:49:09;5.78;;;1.60;;
51636;SDS011;37713;53.254;6.460;2023-02-28T02:51:40;6.28;;;1.77;;
51636;SDS011;37713;53.254;6.460;2023-02-28T02:54:15;8.00;;;2.00;;
51636;SDS011;37713;53.254;6.460;2023-02-28T02:56:46;7.60;;;1.70;;
51636;SDS011;37713;53.254;6.460;2023-02-28T02:59:15;5.03;;;1.60;;
51636;SDS011;37713;53.254;6.460;2023-02-28T03:01:46;7.07;;;2.10;;
51636;SDS011;37713;53.254;6.460;2023-02-28T03:04:21;7.85;;;1.60;;
51636;SDS011;37713;53.254;6.460;2023-02-28T03:06:50;11.27;;;1.80;;
51636;SDS011;37713;53.254;6.460;2023-02-28T03:09:22;4.32;;;1.50;;
51636;SDS011;37713;53.254;6.460;2023-02-28T03:11:48;6.23;;;1.90;;
51636;SDS011;37713;53.254;6.460;2023-02-28T03:19:51;4.15;;;1.60;;
51636;SDS011;37713;53.254;6.460;2023-02-28T03:25:22;5.88;;;1.40;;
51636;SDS011;37713;53.254;6.460;2023-02-28T03:28:02;4.63;;;1.45;;
51636;SDS011;37713;53.254;6.460;2023-02-28T03:30:57;6.07;;;1.42;;
51636;SDS011;37713;53.254;6.460;2023-02-28T03:33:28;5.60;;;1.70;;
51636;SDS011;37713;53.254;6.460;2023-02-28T03:35:59;9.85;;;2.78;;
51636;SDS011;37713;53.254;6.460;2023-02-28T03:38:33;6.28;;;1.73;;
51636;SDS011;37713;53.254;6.460;2023-02-28T03:41:15;9.23;;;1.77;;
51636;SDS011;37713;53.254;6.460;2023-02-28T03:43:49;7.43;;;1.60;;
51636;SDS011;37713;53.254;6.460;2023-02-28T03:46:21;6.45;;;1.73;;
51636;SDS011;37713;53.254;6.460;2023-02-28T03:51:22;6.68;;;1.45;;
51636;SDS011;37713;53.254;6.460;2023-02-28T03:53:52;7.85;;;1.60;;
51636;SDS011;37713;53.254;6.460;2023-02-28T03:59:07;4.57;;;1.90;;
51636;SDS011;37713;53.254;6.460;2023-02-28T04:01:42;6.35;;;2.33;;
51636;SDS011;37713;53.254;6.460;2023-02-28T04:04:10;8.63;;;3.15;;
51636;SDS011;37713;53.254;6.460;2023-02-28T04:06:37;6.43;;;2.60;;
51636;SDS011;37713;53.254;6.460;2023-02-28T04:09:04;7.43;;;2.85;;
51636;SDS011;37713;53.254;6.460;2023-02-28T04:11:38;7.78;;;2.55;;
51636;SDS011;37713;53.254;6.460;2023-02-28T04:14:06;10.40;;;3.80;;
51636;SDS011;37713;53.254;6.460;2023-02-28T04:16:33;9.23;;;4.60;;
51636;SDS011;37713;53.254;6.460;2023-02-28T04:19:05;11.80;;;5.28;;
51636;SDS011;37713;53.254;6.460;2023-02-28T04:21:32;11.90;;;6.57;;
51636;SDS011;37713;53.254;6.460;2023-02-28T04:24:02;10.38;;;6.55;;
51636;SDS011;37713;53.254;6.460;2023-02-28T04:26:32;14.13;;;7.00;;
51636;SDS011;37713;53.254;6.460;2023-02-28T04:28:58;13.63;;;6.80;;
51636;SDS011;37713;53.254;6.460;2023-02-28T04:31:25;13.52;;;7.00;;
51636;SDS011;37713;53.254;6.460;2023-02-28T04:33:50;11.48;;;6.82;;
51636;SDS011;37713;53.254;6.460;2023-02-28T04:36:16;14.15;;;7.45;;
51636;SDS011;37713;53.254;6.460;2023-02-28T04:38:43;14.18;;;7.28;;
51636;SDS011;37713;53.254;6.460;2023-02-28T04:41:10;12.63;;;7.38;;
51636;SDS011;37713;53.254;6.460;2023-02-28T04:43:39;12.57;;;7.40;;
51636;SDS011;37713;53.254;6.460;2023-02-28T04:46:05;11.00;;;6.68;;
51636;SDS011;37713;53.254;6.460;2023-02-28T04:48:33;15.30;;;6.95;;
51636;SDS011;37713;53.254;6.460;2023-02-28T04:51:01;12.93;;;7.70;;
51636;SDS011;37713;53.254;6.460;2023-02-28T04:53:28;12.90;;;7.15;;
51636;SDS011;37713;53.254;6.460;2023-02-28T04:55:54;10.73;;;6.93;;
51636;SDS011;37713;53.254;6.460;2023-02-28T04:58:21;11.75;;;5.88;;
51636;SDS011;37713;53.254;6.460;2023-02-28T05:00:49;10.48;;;6.18;;
51636;SDS011;37713;53.254;6.460;2023-02-28T05:03:15;12.18;;;6.88;;
51636;SDS011;37713;53.254;6.460;2023-02-28T05:05:41;11.73;;;6.78;;
51636;SDS011;37713;53.254;6.460;2023-02-28T05:08:07;10.88;;;6.05;;
51636;SDS011;37713;53.254;6.460;2023-02-28T05:10:32;12.57;;;6.35;;
51636;SDS011;37713;53.254;6.460;2023-02-28T05:12:58;12.48;;;6.25;;
51636;SDS011;37713;53.254;6.460;2023-02-28T05:15:24;11.45;;;6.70;;
51636;SDS011;37713;53.254;6.460;2023-02-28T05:17:50;10.20;;;5.78;;
51636;SDS011;37713;53.254;6.460;2023-02-28T05:20:16;9.50;;;4.95;;
51636;SDS011;37713;53.254;6.460;2023-02-28T05:22:42;9.27;;;4.90;;
51636;SDS011;37713;53.254;6.460;2023-02-28T05:25:12;9.25;;;4.40;;
51636;SDS011;37713;53.254;6.460;2023-02-28T05:27:41;9.15;;;4.82;;
51636;SDS011;37713;53.254;6.460;2023-02-28T05:30:07;8.32;;;4.50;;
51636;SDS011;37713;53.254;6.460;2023-02-28T05:32:38;8.32;;;4.93;;
51636;SDS011;37713;53.254;6.460;2023-02-28T05:35:08;8.02;;;4.50;;
51636;SDS011;37713;53.254;6.460;2023-02-28T05:37:37;10.75;;;5.20;;
51636;SDS011;37713;53.254;6.460;2023-02-28T05:40:04;10.32;;;5.20;;
51636;SDS011;37713;53.254;6.460;2023-02-28T05:42:32;10.02;;;5.35;;
51636;SDS011;37713;53.254;6.460;2023-02-28T05:44:57;11.05;;;5.38;;
51636;SDS011;37713;53.254;6.460;2023-02-28T05:47:24;11.35;;;5.68;;
51636;SDS011;37713;53.254;6.460;2023-02-28T05:49:50;10.15;;;5.90;;
51636;SDS011;37713;53.254;6.460;2023-02-28T05:52:15;12.35;;;6.05;;
51636;SDS011;37713;53.254;6.460;2023-02-28T05:54:41;12.18;;;6.32;;
51636;SDS011;37713;53.254;6.460;2023-02-28T05:57:07;11.55;;;5.88;;
51636;SDS011;37713;53.254;6.460;2023-02-28T05:59:33;10.80;;;5.72;;
51636;SDS011;37713;53.254;6.460;2023-02-28T06:01:58;12.73;;;6.15;;
51636;SDS011;37713;53.254;6.460;2023-02-28T06:04:24;11.20;;;6.15;;
51636;SDS011;37713;53.254;6.460;2023-02-28T06:06:50;12.52;;;6.30;;
51636;SDS011;37713;53.254;6.460;2023-02-28T06:09:17;11.93;;;6.47;;
51636;SDS011;37713;53.254;6.460;2023-02-28T06:11:44;11.35;;;6.35;;
51636;SDS011;37713;53.254;6.460;2023-02-28T06:14:16;12.15;;;6.55;;
51636;SDS011;37713;53.254;6.460;2023-02-28T06:16:43;11.80;;;6.95;;
51636;SDS011;37713;53.254;6.460;2023-02-28T06:19:09;12.93;;;7.10;;
51636;SDS011;37713;53.254;6.460;2023-02-28T06:21:35;12.07;;;7.43;;
51636;SDS011;37713;53.254;6.460;2023-02-28T06:24:02;11.20;;;6.65;;
51636;SDS011;37713;53.254;6.460;2023-02-28T06:26:28;14.85;;;6.65;;
51636;SDS011;37713;53.254;6.460;2023-02-28T06:28:54;12.23;;;6.60;;
51636;SDS011;37713;53.254;6.460;2023-02-28T06:31:20;13.02;;;6.90;;
51636;SDS011;37713;53.254;6.460;2023-02-28T06:33:46;13.18;;;6.90;;
51636;SDS011;37713;53.254;6.460;2023-02-28T06:36:13;12.18;;;7.28;;
51636;SDS011;37713;53.254;6.460;2023-02-28T06:38:39;14.82;;;7.50;;
51636;SDS011;37713;53.254;6.460;2023-02-28T06:41:06;13.00;;;7.18;;
51636;SDS011;37713;53.254;6.460;2023-02-28T06:43:33;13.18;;;6.88;;
51636;SDS011;37713;53.254;6.460;2023-02-28T06:46:02;13.90;;;7.47;;
51636;SDS011;37713;53.254;6.460;2023-02-28T06:48:30;12.85;;;7.30;;
51636;SDS011;37713;53.254;6.460;2023-02-28T06:51:06;14.98;;;7.32;;
51636;SDS011;37713;53.254;6.460;2023-02-28T06:53:35;15.35;;;7.85;;
51636;SDS011;37713;53.254;6.460;2023-02-28T06:56:05;12.52;;;6.97;;
51636;SDS011;37713;53.254;6.460;2023-02-28T06:58:38;12.65;;;7.65;;
51636;SDS011;37713;53.254;6.460;2023-02-28T07:01:05;12.13;;;7.32;;
51636;SDS011;37713;53.254;6.460;2023-02-28T07:03:31;12.82;;;7.15;;
51636;SDS011;37713;53.254;6.460;2023-02-28T07:05:57;11.90;;;6.90;;
51636;SDS011;37713;53.254;6.460;2023-02-28T07:08:23;16.40;;;7.95;;
51636;SDS011;37713;53.254;6.460;2023-02-28T07:10:53;15.30;;;8.95;;
51636;SDS011;37713;53.254;6.460;2023-02-28T07:13:20;13.82;;;8.50;;
51636;SDS011;37713;53.254;6.460;2023-02-28T07:15:52;16.92;;;9.18;;
51636;SDS011;37713;53.254;6.460;2023-02-28T07:18:19;16.90;;;9.88;;
51636;SDS011;37713;53.254;6.460;2023-02-28T07:20:45;19.25;;;9.50;;
51636;SDS011;37713;53.254;6.460;2023-02-28T07:23:11;17.17;;;9.57;;
51636;SDS011;37713;53.254;6.460;2023-02-28T07:25:36;18.52;;;9.23;;
51636;SDS011;37713;53.254;6.460;2023-02-28T07:28:02;15.23;;;9.23;;
51636;SDS011;37713;53.254;6.460;2023-02-28T07:30:28;18.35;;;10.00;;
51636;SDS011;37713;53.254;6.460;2023-02-28T07:32:54;18.42;;;9.55;;
51636;SDS011;37713;53.254;6.460;2023-02-28T07:35:21;16.48;;;9.32;;
51636;SDS011;37713;53.254;6.460;2023-02-28T07:37:47;18.08;;;9.88;;
51636;SDS011;37713;53.254;6.460;2023-02-28T07:40:13;19.42;;;9.70;;
51636;SDS011;37713;53.254;6.460;2023-02-28T07:42:40;18.88;;;9.35;;
51636;SDS011;37713;53.254;6.460;2023-02-28T07:45:07;16.88;;;9.48;;
51636;SDS011;37713;53.254;6.460;2023-02-28T07:47:37;17.27;;;9.48;;
51636;SDS011;37713;53.254;6.460;2023-02-28T07:50:04;17.10;;;9.05;;
51636;SDS011;37713;53.254;6.460;2023-02-28T07:52:31;15.65;;;8.25;;
51636;SDS011;37713;53.254;6.460;2023-02-28T07:54:57;17.52;;;8.88;;
51636;SDS011;37713;53.254;6.460;2023-02-28T07:57:23;15.55;;;8.60;;
51636;SDS011;37713;53.254;6.460;2023-02-28T07:59:49;16.48;;;9.40;;
51636;SDS011;37713;53.254;6.460;2023-02-28T08:02:15;18.05;;;8.65;;
51636;SDS011;37713;53.254;6.460;2023-02-28T08:04:42;16.08;;;8.77;;
51636;SDS011;37713;53.254;6.460;2023-02-28T08:07:08;18.58;;;9.02;;
51636;SDS011;37713;53.254;6.460;2023-02-28T08:09:41;15.75;;;8.73;;
51636;SDS011;37713;53.254;6.460;2023-02-28T08:12:07;17.70;;;8.73;;
51636;SDS011;37713;53.254;6.460;2023-02-28T08:14:35;16.13;;;8.73;;
51636;SDS011;37713;53.254;6.460;2023-02-28T08:17:01;14.57;;;8.30;;
51636;SDS011;37713;53.254;6.460;2023-02-28T08:19:27;17.52;;;8.70;;
51636;SDS011;37713;53.254;6.460;2023-02-28T08:21:53;16.83;;;8.57;;
51636;SDS011;37713;53.254;6.460;2023-02-28T08:24:19;15.40;;;8.32;;
51636;SDS011;37713;53.254;6.460;2023-02-28T08:26:45;18.00;;;8.73;;
51636;SDS011;37713;53.254;6.460;2023-02-28T08:29:11;16.15;;;8.40;;
51636;SDS011;37713;53.254;6.460;2023-02-28T08:31:37;16.52;;;9.68;;
51636;SDS011;37713;53.254;6.460;2023-02-28T08:34:07;17.38;;;8.68;;
51636;SDS011;37713;53.254;6.460;2023-02-28T08:36:33;15.35;;;8.20;;
51636;SDS011;37713;53.254;6.460;2023-02-28T08:39:00;18.15;;;9.18;;
51636;SDS011;37713;53.254;6.460;2023-02-28T08:41:26;17.70;;;9.27;;
51636;SDS011;37713;53.254;6.460;2023-02-28T08:43:52;18.75;;;9.52;;
51636;SDS011;37713;53.254;6.460;2023-02-28T08:46:18;16.13;;;8.65;;
51636;SDS011;37713;53.254;6.460;2023-02-28T08:48:45;18.08;;;8.85;;
51636;SDS011;37713;53.254;6.460;2023-02-28T08:51:12;17.23;;;9.38;;
51636;SDS011;37713;53.254;6.460;2023-02-28T08:53:41;17.02;;;9.20;;
51636;SDS011;37713;53.254;6.460;2023-02-28T08:56:14;16.38;;;8.57;;
51636;SDS011;37713;53.254;6.460;2023-02-28T08:58:41;17.95;;;9.63;;
51636;SDS011;37713;53.254;6.460;2023-02-28T09:01:16;18.65;;;9.18;;
51636;SDS011;37713;53.254;6.460;2023-02-28T09:03:46;17.88;;;8.65;;
51636;SDS011;37713;53.254;6.460;2023-02-28T09:06:14;15.32;;;8.75;;
51636;SDS011;37713;53.254;6.460;2023-02-28T09:08:41;15.82;;;9.50;;
51636;SDS011;37713;53.254;6.460;2023-02-28T09:11:08;16.85;;;9.65;;
51636;SDS011;37713;53.254;6.460;2023-02-28T09:13:34;15.82;;;9.02;;
51636;SDS011;37713;53.254;6.460;2023-02-28T09:16:02;17.20;;;9.68;;
51636;SDS011;37713;53.254;6.460;2023-02-28T09:18:29;17.08;;;9.18;;
51636;SDS011;37713;53.254;6.460;2023-02-28T09:20:55;14.30;;;8.90;;
51636;SDS011;37713;53.254;6.460;2023-02-28T09:23:23;15.25;;;9.00;;
51636;SDS011;37713;53.254;6.460;2023-02-28T09:25:50;17.33;;;8.85;;
51636;SDS011;37713;53.254;6.460;2023-02-28T09:28:18;16.48;;;8.50;;
51636;SDS011;37713;53.254;6.460;2023-02-28T09:30:45;17.33;;;8.48;;
51636;SDS011;37713;53.254;6.460;2023-02-28T09:33:16;15.05;;;8.50;;
51636;SDS011;37713;53.254;6.460;2023-02-28T09:35:45;18.65;;;9.32;;
51636;SDS011;37713;53.254;6.460;2023-02-28T09:38:15;19.30;;;9.52;;
51636;SDS011;37713;53.254;6.460;2023-02-28T09:40:58;14.68;;;8.32;;
51636;SDS011;37713;53.254;6.460;2023-02-28T09:43:27;16.58;;;8.63;;
51636;SDS011;37713;53.254;6.460;2023-02-28T09:48:56;13.30;;;7.95;;
51636;SDS011;37713;53.254;6.460;2023-02-28T09:54:14;13.35;;;7.65;;
51636;SDS011;37713;53.254;6.460;2023-02-28T09:56:44;14.80;;;8.50;;
51636;SDS011;37713;53.254;6.460;2023-02-28T10:04:46;13.70;;;8.13;;
51636;SDS011;37713;53.254;6.460;2023-02-28T10:09:55;16.55;;;8.43;;
51636;SDS011;37713;53.254;6.460;2023-02-28T10:12:23;16.83;;;8.73;;
51636;SDS011;37713;53.254;6.460;2023-02-28T10:14:51;17.95;;;9.45;;
51636;SDS011;37713;53.254;6.460;2023-02-28T10:17:21;16.13;;;9.07;;
51636;SDS011;37713;53.254;6.460;2023-02-28T10:22:37;16.15;;;8.55;;
51636;SDS011;37713;53.254;6.460;2023-02-28T10:25:18;16.23;;;8.63;;
51636;SDS011;37713;53.254;6.460;2023-02-28T10:27:46;14.07;;;7.97;;
51636;SDS011;37713;53.254;6.460;2023-02-28T10:30:12;14.57;;;8.32;;
51636;SDS011;37713;53.254;6.460;2023-02-28T10:32:39;14.20;;;7.97;;
51636;SDS011;37713;53.254;6.460;2023-02-28T10:37:41;13.93;;;8.07;;
51636;SDS011;37713;53.254;6.460;2023-02-28T10:42:42;13.25;;;7.47;;
51636;SDS011;37713;53.254;6.460;2023-02-28T10:45:19;13.75;;;7.50;;
51636;SDS011;37713;53.254;6.460;2023-02-28T10:47:55;13.13;;;7.75;;
51636;SDS011;37713;53.254;6.460;2023-02-28T10:50:29;12.45;;;6.78;;
51636;SDS011;37713;53.254;6.460;2023-02-28T10:56:00;13.70;;;7.35;;
51636;SDS011;37713;53.254;6.460;2023-02-28T11:03:55;11.32;;;6.47;;
51636;SDS011;37713;53.254;6.460;2023-02-28T11:06:23;11.88;;;6.20;;
51636;SDS011;37713;53.254;6.460;2023-02-28T11:08:56;12.10;;;6.32;;
51636;SDS011;37713;53.254;6.460;2023-02-28T11:11:25;14.05;;;6.88;;
51636;SDS011;37713;53.254;6.460;2023-02-28T11:13:54;12.00;;;6.40;;
51636;SDS011;37713;53.254;6.460;2023-02-28T11:16:30;11.73;;;6.10;;
51636;SDS011;37713;53.254;6.460;2023-02-28T11:19:02;12.45;;;6.05;;
51636;SDS011;37713;53.254;6.460;2023-02-28T11:21:35;12.50;;;5.97;;
51636;SDS011;37713;53.254;6.460;2023-02-28T11:26:51;12.85;;;6.00;;
51636;SDS011;37713;53.254;6.460;2023-02-28T11:32:00;11.90;;;5.40;;
51636;SDS011;37713;53.254;6.460;2023-02-28T11:34:29;12.13;;;5.78;;
51636;SDS011;37713;53.254;6.460;2023-02-28T11:36:57;11.32;;;5.85;;
51636;SDS011;37713;53.254;6.460;2023-02-28T11:39:25;12.00;;;5.50;;
51636;SDS011;37713;53.254;6.460;2023-02-28T11:47:19;9.00;;;4.70;;
51636;SDS011;37713;53.254;6.460;2023-02-28T12:01:36;10.60;;;6.13;;
51636;SDS011;37713;53.254;6.460;2023-02-28T12:06:22;11.75;;;5.68;;
51636;SDS011;37713;53.254;6.460;2023-02-28T12:11:34;12.48;;;6.40;;
51636;SDS011;37713;53.254;6.460;2023-02-28T12:17:02;11.48;;;6.13;;
51636;SDS011;37713;53.254;6.460;2023-02-28T12:22:30;12.60;;;5.93;;
51636;SDS011;37713;53.254;6.460;2023-02-28T12:27:50;12.60;;;5.88;;
51636;SDS011;37713;53.254;6.460;2023-02-28T12:30:25;10.38;;;5.35;;
51636;SDS011;37713;53.254;6.460;2023-02-28T12:33:03;10.00;;;5.35;;
51636;SDS011;37713;53.254;6.460;2023-02-28T12:35:36;9.15;;;5.25;;
51636;SDS011;37713;53.254;6.460;2023-02-28T12:38:12;11.18;;;5.88;;
51636;SDS011;37713;53.254;6.460;2023-02-28T12:40:52;11.18;;;5.90;;
51636;SDS011;37713;53.254;6.460;2023-02-28T12:43:33;10.00;;;5.47;;
51636;SDS011;37713;53.254;6.460;2023-02-28T12:46:07;11.52;;;6.47;;
51636;SDS011;37713;53.254;6.460;2023-02-28T12:48:37;10.73;;;6.22;;
51636;SDS011;37713;53.254;6.460;2023-02-28T12:51:05;12.50;;;5.93;;
51636;SDS011;37713;53.254;6.460;2023-02-28T12:56:41;9.60;;;5.60;;
51636;SDS011;37713;53.254;6.460;2023-02-28T13:10:03;9.43;;;5.85;;
51636;SDS011;37713;53.254;6.460;2023-02-28T13:12:33;10.10;;;6.07;;
51636;SDS011;37713;53.254;6.460;2023-02-28T13:15:05;10.27;;;6.35;;
51636;SDS011;37713;53.254;6.460;2023-02-28T13:17:38;12.68;;;6.15;;
51636;SDS011;37713;53.254;6.460;2023-02-28T13:20:16;10.75;;;6.20;;
51636;SDS011;37713;53.254;6.460;2023-02-28T13:22:49;9.73;;;6.10;;
51636;SDS011;37713;53.254;6.460;2023-02-28T13:27:59;12.18;;;5.95;;
51636;SDS011;37713;53.254;6.460;2023-02-28T13:36:00;11.60;;;5.80;;
51636;SDS011;37713;53.254;6.460;2023-02-28T13:44:08;13.30;;;6.45;;
51636;SDS011;37713;53.254;6.460;2023-02-28T13:46:36;13.00;;;6.68;;
51636;SDS011;37713;53.254;6.460;2023-02-28T13:49:33;13.73;;;6.72;;
51636;SDS011;37713;53.254;6.460;2023-02-28T14:05:12;12.68;;;6.35;;
51636;SDS011;37713;53.254;6.460;2023-02-28T14:07:45;10.77;;;6.30;;
51636;SDS011;37713;53.254;6.460;2023-02-28T14:10:28;12.70;;;6.70;;
51636;SDS011;37713;53.254;6.460;2023-02-28T14:13:02;10.48;;;6.30;;
51636;SDS011;37713;53.254;6.460;2023-02-28T14:18:05;13.63;;;7.03;;
51636;SDS011;37713;53.254;6.460;2023-02-28T14:20:47;14.05;;;6.88;;
51636;SDS011;37713;53.254;6.460;2023-02-28T14:23:24;13.40;;;7.10;;
51636;SDS011;37713;53.254;6.460;2023-02-28T14:26:02;14.40;;;7.25;;
51636;SDS011;37713;53.254;6.460;2023-02-28T14:31:29;12.75;;;7.07;;
51636;SDS011;37713;53.254;6.460;2023-02-28T14:37:02;14.20;;;7.07;;
51636;SDS011;37713;53.254;6.460;2023-02-28T14:39:28;13.82;;;6.93;;
51636;SDS011;37713;53.254;6.460;2023-02-28T14:41:56;13.23;;;7.03;;
51636;SDS011;37713;53.254;6.460;2023-02-28T14:44:28;11.50;;;6.90;;
51636;SDS011;37713;53.254;6.460;2023-02-28T14:46:59;12.07;;;6.85;;
51636;SDS011;37713;53.254;6.460;2023-02-28T14:49:34;11.82;;;7.10;;
51636;SDS011;37713;53.254;6.460;2023-02-28T14:54:51;11.55;;;7.43;;
51636;SDS011;37713;53.254;6.460;2023-02-28T14:57:29;15.73;;;6.85;;
51636;SDS011;37713;53.254;6.460;2023-02-28T15:00:09;12.10;;;6.85;;
51636;SDS011;37713;53.254;6.460;2023-02-28T15:02:56;14.13;;;7.78;;
51636;SDS011;37713;53.254;6.460;2023-02-28T15:05:31;12.57;;;7.43;;
51636;SDS011;37713;53.254;6.460;2023-02-28T15:08:16;13.30;;;7.60;;
51636;SDS011;37713;53.254;6.460;2023-02-28T15:10:50;13.30;;;7.43;;
51636;SDS011;37713;53.254;6.460;2023-02-28T15:13:16;12.65;;;7.30;;
51636;SDS011;37713;53.254;6.460;2023-02-28T15:15:48;14.38;;;8.00;;
51636;SDS011;37713;53.254;6.460;2023-02-28T15:21:15;11.57;;;7.97;;
51636;SDS011;37713;53.254;6.460;2023-02-28T15:23:46;12.25;;;7.40;;
51636;SDS011;37713;53.254;6.460;2023-02-28T15:26:18;10.57;;;7.72;;
51636;SDS011;37713;53.254;6.460;2023-02-28T15:28:48;12.60;;;7.13;;
51636;SDS011;37713;53.254;6.460;2023-02-28T15:31:21;14.05;;;7.88;;
51636;SDS011;37713;53.254;6.460;2023-02-28T15:33:57;11.60;;;8.00;;
51636;SDS011;37713;53.254;6.460;2023-02-28T15:36:32;14.35;;;7.82;;
51636;SDS011;37713;53.254;6.460;2023-02-28T15:39:02;13.00;;;8.38;;
51636;SDS011;37713;53.254;6.460;2023-02-28T15:41:43;15.38;;;8.68;;
51636;SDS011;37713;53.254;6.460;2023-02-28T15:46:59;12.55;;;8.18;;
51636;SDS011;37713;53.254;6.460;2023-02-28T15:49:26;15.45;;;8.68;;
51636;SDS011;37713;53.254;6.460;2023-02-28T15:51:55;19.40;;;8.45;;
51636;SDS011;37713;53.254;6.460;2023-02-28T15:54:28;15.75;;;8.63;;
51636;SDS011;37713;53.254;6.460;2023-02-28T15:56:57;14.23;;;8.00;;
51636;SDS011;37713;53.254;6.460;2023-02-28T15:59:35;13.45;;;8.20;;
51636;SDS011;37713;53.254;6.460;2023-02-28T16:02:18;14.63;;;8.70;;
51636;SDS011;37713;53.254;6.460;2023-02-28T16:04:55;17.23;;;8.23;;
51636;SDS011;37713;53.254;6.460;2023-02-28T16:07:24;13.75;;;8.07;;
51636;SDS011;37713;53.254;6.460;2023-02-28T16:09:50;14.57;;;8.38;;
51636;SDS011;37713;53.254;6.460;2023-02-28T16:12:16;11.60;;;7.90;;
51636;SDS011;37713;53.254;6.460;2023-02-28T16:14:43;13.30;;;8.25;;
51636;SDS011;37713;53.254;6.460;2023-02-28T16:17:23;13.48;;;8.23;;
51636;SDS011;37713;53.254;6.460;2023-02-28T16:19:51;15.20;;;8.57;;
51636;SDS011;37713;53.254;6.460;2023-02-28T16:22:17;16.50;;;8.70;;
51636;SDS011;37713;53.254;6.460;2023-02-28T16:24:43;13.77;;;7.97;;
51636;SDS011;37713;53.254;6.460;2023-02-28T16:27:16;13.85;;;8.25;;
51636;SDS011;37713;53.254;6.460;2023-02-28T16:30:01;13.68;;;8.18;;
51636;SDS011;37713;53.254;6.460;2023-02-28T16:32:27;13.27;;;8.25;;
51636;SDS011;37713;53.254;6.460;2023-02-28T16:34:52;13.98;;;8.00;;
51636;SDS011;37713;53.254;6.460;2023-02-28T16:37:18;14.32;;;8.48;;
51636;SDS011;37713;53.254;6.460;2023-02-28T16:39:44;15.07;;;8.50;;
51636;SDS011;37713;53.254;6.460;2023-02-28T16:42:32;13.45;;;8.15;;
51636;SDS011;37713;53.254;6.460;2023-02-28T16:44:56;13.15;;;8.73;;
51636;SDS011;37713;53.254;6.460;2023-02-28T16:47:23;13.15;;;7.90;;
51636;SDS011;37713;53.254;6.460;2023-02-28T16:49:51;12.43;;;8.32;;
51636;SDS011;37713;53.254;6.460;2023-02-28T16:52:18;17.77;;;8.90;;
51636;SDS011;37713;53.254;6.460;2023-02-28T16:54:43;15.65;;;9.23;;
51636;SDS011;37713;53.254;6.460;2023-02-28T16:57:15;20.90;;;11.63;;
51636;SDS011;37713;53.254;6.460;2023-02-28T16:59:45;16.90;;;10.73;;
51636;SDS011;37713;53.254;6.460;2023-02-28T17:02:14;15.40;;;10.30;;
51636;SDS011;37713;53.254;6.460;2023-02-28T17:04:44;15.50;;;11.15;;
51636;SDS011;37713;53.254;6.460;2023-02-28T17:07:11;16.25;;;11.07;;
51636;SDS011;37713;53.254;6.460;2023-02-28T17:09:39;21.45;;;11.35;;
51636;SDS011;37713;53.254;6.460;2023-02-28T17:12:05;17.38;;;11.13;;
51636;SDS011;37713;53.254;6.460;2023-02-28T17:14:32;19.77;;;11.63;;
51636;SDS011;37713;53.254;6.460;2023-02-28T17:16:57;21.95;;;12.35;;
51636;SDS011;37713;53.254;6.460;2023-02-28T17:19:23;21.90;;;13.25;;
51636;SDS011;37713;53.254;6.460;2023-02-28T17:21:49;23.70;;;13.10;;
51636;SDS011;37713;53.254;6.460;2023-02-28T17:24:15;20.73;;;12.98;;
51636;SDS011;37713;53.254;6.460;2023-02-28T17:26:41;21.27;;;13.73;;